Etusivu
METAR-TAF:

METAR-TAF

Lentoasemat :

HAL Bangaloren kansainvälinen lentoasema

Bangalore, Intia

Leveyspiiri: 12-57-00N, Pituuspiiri: 077-40-06E, korkeus merenpinnasta: 888 m

Tämänhetkinen sää

Tämä raportti tehtiin 35 minuuttia sitten, kello 03.00 UTC
Tuuli 2 kn kaakosta
Lämpötila 21°C
Kosteus 60%
Ilmanpaine 1019 hPa
Näkyvyys: 3000 m
usvaa

METAR: VOBG 180300Z 14002KT 3000 HZ NSC 21/13 Q1019 BECMG 5000 HZ

Aika: 09:05 (03:35 UTC)

Sääennuste

Tämä raportti tehtiin 1 tunti ja 35 minuuttia sitten, kello 02.00 UTC
Ennuste voimassa 18. päivästä klo 03 UTC - 18. päivään klo 12 UTC
Tuuli 10 kn idästä/kaakosta
Näkyvyys: 6000 m
Muutamia pilviä 1500 ft:n korkeudessa

TAF: VOBG 180200Z 1803/1812 11010KT 6000 FEW015

Säähavainnot ja -ennusteet yli 4000 lentoasemalta (METAR- ja TAF-raportit).

Käytössä olevat sääasemat on merkitty karttaan keltaisilla ja punaisilla pisteillä.

Aseta hiiri pisteen päälle nähdäksesi sääaseman nimen.

Klikkaa sitten nähdäksesi säähavainnot ja -ennusteet.

Kartan vaihtaminen: klikkaa mustalla rastilla varustettuja vihreitä pisteitä, niin voit zoomata sisään; viivalla varustettua vihreää pistettä, niin voit zoomata ulos tai vihreitä nuolia, niin pääset viereisille kartoille.


METAR-TAF: